createdAt,value
2022-11-26T00:00:49.759Z,3.20
2022-11-26T00:03:17.743Z,3.30
2022-11-26T00:05:48.122Z,3.13
2022-11-26T00:08:21.759Z,3.77
2022-11-26T00:10:51.049Z,3.90
2022-11-26T00:13:21.307Z,3.30
2022-11-26T00:15:49.915Z,3.27
2022-11-26T00:18:17.746Z,4.00
2022-11-26T00:20:46.222Z,4.07
2022-11-26T00:23:21.271Z,3.90
2022-11-26T00:25:51.203Z,5.07
2022-11-26T00:28:29.925Z,3.90
2022-11-26T00:30:59.438Z,4.17
2022-11-26T00:33:27.870Z,3.40
2022-11-26T00:35:57.533Z,3.73
2022-11-26T00:38:26.683Z,3.70
2022-11-26T00:40:54.255Z,3.50
2022-11-26T00:43:21.797Z,3.63
2022-11-26T00:45:50.436Z,3.90
2022-11-26T00:48:19.067Z,4.53
2022-11-26T00:50:49.555Z,3.70
2022-11-26T00:53:19.166Z,3.50
2022-11-26T00:55:50.224Z,3.73
2022-11-26T00:58:23.923Z,4.00
2022-11-26T01:00:52.190Z,3.40
2022-11-26T01:03:19.999Z,4.03
2022-11-26T01:05:50.207Z,4.30
2022-11-26T01:08:21.622Z,3.97
2022-11-26T01:10:50.483Z,3.83
2022-11-26T01:13:17.960Z,3.90
2022-11-26T01:15:45.529Z,3.60
2022-11-26T01:18:14.957Z,3.23
2022-11-26T01:20:42.607Z,4.03
2022-11-26T01:23:10.946Z,3.93
2022-11-26T01:25:38.634Z,3.20
2022-11-26T01:28:10.735Z,3.80
2022-11-26T01:30:38.354Z,3.87
2022-11-26T01:33:05.866Z,3.10
2022-11-26T01:35:33.636Z,3.20
2022-11-26T01:38:01.280Z,3.27
2022-11-26T01:40:50.821Z,2.87
2022-11-26T01:43:25.368Z,2.90
2022-11-26T01:45:52.927Z,3.23
2022-11-26T01:48:29.847Z,3.27
2022-11-26T01:51:00.028Z,3.23
2022-11-26T01:53:33.985Z,3.83
2022-11-26T01:56:04.818Z,4.30
2022-11-26T01:58:39.843Z,6.13
2022-11-26T02:01:08.452Z,3.57
2022-11-26T02:03:40.597Z,2.97
2022-11-26T02:06:10.142Z,3.50
2022-11-26T02:08:37.800Z,3.60
2022-11-26T02:11:16.295Z,3.13
2022-11-26T02:13:46.908Z,2.83
2022-11-26T02:16:21.304Z,2.70
2022-11-26T02:18:55.888Z,4.80
2022-11-26T02:21:26.760Z,2.60
2022-11-26T02:24:16.336Z,3.10
2022-11-26T02:27:21.320Z,3.23
2022-11-26T02:30:00.789Z,3.50
2022-11-26T02:32:31.126Z,3.40
2022-11-26T02:35:02.413Z,2.97
2022-11-26T02:37:33.172Z,3.50
2022-11-26T02:40:00.710Z,3.00
2022-11-26T02:42:29.862Z,3.50
2022-11-26T02:45:00.241Z,4.87
2022-11-26T02:47:28.493Z,2.87
2022-11-26T02:49:57.356Z,2.87
2022-11-26T02:52:26.334Z,3.40
2022-11-26T02:54:54.032Z,3.17
2022-11-26T02:57:23.110Z,3.57
2022-11-26T02:59:50.817Z,3.40
2022-11-26T03:02:25.884Z,3.90
2022-11-26T03:04:55.830Z,3.60
2022-11-26T03:07:24.052Z,3.43
2022-11-26T03:09:53.368Z,3.03
2022-11-26T03:12:21.104Z,4.40
2022-11-26T03:14:48.632Z,2.90
2022-11-26T03:17:16.410Z,3.70
2022-11-26T03:19:45.484Z,4.50
2022-11-26T03:22:13.267Z,3.03
2022-11-26T03:24:41.108Z,3.17
2022-11-26T03:27:08.744Z,3.30
2022-11-26T03:29:36.220Z,3.47
2022-11-26T03:32:03.863Z,3.30
2022-11-26T03:34:31.607Z,3.13
2022-11-26T03:37:00.506Z,3.17
2022-11-26T03:39:28.000Z,3.70
2022-11-26T03:41:55.474Z,3.67
2022-11-26T03:44:23.093Z,4.00
2022-11-26T03:46:50.608Z,3.40
2022-11-26T03:49:21.293Z,4.17
2022-11-26T03:51:48.771Z,3.73
2022-11-26T03:54:17.627Z,4.20
2022-11-26T03:56:45.165Z,3.70
2022-11-26T03:59:12.718Z,3.87
2022-11-26T04:01:40.410Z,4.30
2022-11-26T04:04:07.979Z,4.63
2022-11-26T04:06:35.538Z,3.53
2022-11-26T04:09:03.156Z,4.07
2022-11-26T04:11:32.024Z,3.40
2022-11-26T04:13:59.547Z,3.23
2022-11-26T04:16:27.186Z,3.20
2022-11-26T04:18:54.781Z,3.97
2022-11-26T04:21:22.352Z,3.03
2022-11-26T04:23:49.873Z,2.97
2022-11-26T04:26:17.584Z,3.60
2022-11-26T04:28:46.537Z,3.33
2022-11-26T04:31:14.516Z,3.67
2022-11-26T04:33:42.756Z,4.20
2022-11-26T04:36:10.625Z,3.97
2022-11-26T04:38:38.478Z,4.03
2022-11-26T04:41:06.238Z,3.50
2022-11-26T04:43:33.940Z,3.00
2022-11-26T04:46:02.912Z,2.80
2022-11-26T04:48:30.511Z,3.43
2022-11-26T04:50:58.115Z,3.27
2022-11-26T04:53:25.643Z,3.53
2022-11-26T04:55:53.749Z,3.47
2022-11-26T04:58:21.715Z,2.57
2022-11-26T05:00:51.287Z,3.37
2022-11-26T05:03:20.491Z,3.03
2022-11-26T05:05:48.821Z,2.90
2022-11-26T05:08:16.428Z,3.10
2022-11-26T05:10:43.965Z,4.00
2022-11-26T05:13:11.522Z,3.30
2022-11-26T05:15:39.290Z,3.43
2022-11-26T05:18:06.852Z,3.83
2022-11-26T05:20:35.706Z,3.60
2022-11-26T05:23:03.193Z,3.87
2022-11-26T05:25:30.688Z,3.60
2022-11-26T05:27:58.178Z,2.77
2022-11-26T05:30:25.693Z,3.57
2022-11-26T05:32:53.165Z,3.20
2022-11-26T05:35:20.709Z,3.17
2022-11-26T05:37:49.572Z,4.10
2022-11-26T05:40:17.552Z,3.50
2022-11-26T05:42:45.063Z,3.30
2022-11-26T05:45:12.664Z,3.60
2022-11-26T05:47:40.326Z,3.70
2022-11-26T05:50:09.366Z,3.53
2022-11-26T05:52:36.872Z,3.77
2022-11-26T05:55:06.678Z,4.17
2022-11-26T05:57:34.182Z,4.23
2022-11-26T06:00:01.778Z,3.07
2022-11-26T06:02:29.326Z,3.60
2022-11-26T06:04:56.905Z,3.40
2022-11-26T06:07:24.457Z,4.17
2022-11-26T06:09:51.968Z,3.90
2022-11-26T06:12:20.907Z,3.80
2022-11-26T06:14:48.891Z,4.17
2022-11-26T06:17:16.898Z,5.60
2022-11-26T06:19:44.411Z,3.70
2022-11-26T06:22:11.966Z,4.80
2022-11-26T06:24:40.017Z,4.27
2022-11-26T06:27:07.806Z,3.63
2022-11-26T06:29:36.932Z,3.20
2022-11-26T06:32:04.662Z,2.97
2022-11-26T06:34:32.234Z,3.50
2022-11-26T06:36:59.686Z,3.53
2022-11-26T06:39:27.430Z,4.23
2022-11-26T06:41:54.929Z,3.73
2022-11-26T06:44:22.434Z,4.60
2022-11-26T06:46:51.246Z,3.73
2022-11-26T06:49:18.871Z,4.53
2022-11-26T06:51:46.383Z,4.13
2022-11-26T06:54:13.850Z,4.40
2022-11-26T06:56:41.350Z,4.57
2022-11-26T06:59:08.845Z,4.17
2022-11-26T07:01:36.379Z,5.40
2022-11-26T07:04:05.446Z,4.50
2022-11-26T07:06:34.095Z,4.17
2022-11-26T07:09:04.305Z,4.47
2022-11-26T07:11:32.063Z,4.23
2022-11-26T07:13:59.703Z,3.50
2022-11-26T07:16:27.220Z,4.30
2022-11-26T07:19:02.474Z,4.10
2022-11-26T07:21:32.150Z,5.10
2022-11-26T07:24:00.254Z,4.70
2022-11-26T07:26:27.779Z,3.80
2022-11-26T07:28:55.301Z,4.63
2022-11-26T07:31:23.971Z,4.13
2022-11-26T07:33:52.093Z,4.60
2022-11-26T07:36:21.482Z,4.93
2022-11-26T07:38:50.488Z,4.73
2022-11-26T07:41:19.667Z,6.07
2022-11-26T07:43:47.924Z,5.03
2022-11-26T07:46:17.138Z,5.17
2022-11-26T07:48:44.972Z,5.20
2022-11-26T07:51:17.716Z,5.53
2022-11-26T07:53:45.484Z,5.20
2022-11-26T07:56:14.659Z,4.77
2022-11-26T07:58:42.341Z,4.80
2022-11-26T08:01:10.935Z,5.17
2022-11-26T08:03:39.829Z,5.10
2022-11-26T08:06:09.132Z,6.23
2022-11-26T08:08:37.415Z,5.10
2022-11-26T08:11:06.409Z,5.20
2022-11-26T08:13:35.290Z,5.10
2022-11-26T08:16:02.938Z,7.00
2022-11-26T08:18:30.460Z,6.53
2022-11-26T08:20:58.246Z,5.90
2022-11-26T08:23:26.479Z,6.03
2022-11-26T08:26:20.386Z,6.03
2022-11-26T08:28:44.743Z,6.90
2022-11-26T08:31:13.867Z,9.63
2022-11-26T08:33:42.801Z,8.10
2022-11-26T08:36:11.278Z,8.17
2022-11-26T08:38:41.332Z,8.47
2022-11-26T08:41:11.591Z,8.97
2022-11-26T08:44:04.988Z,8.60
2022-11-26T08:46:29.371Z,7.87
2022-11-26T08:48:57.651Z,8.50
2022-11-26T08:51:25.936Z,9.87
2022-11-26T08:53:53.856Z,9.27
2022-11-26T08:56:21.836Z,8.77
2022-11-26T08:58:51.349Z,8.47
2022-11-26T09:01:20.564Z,8.37
2022-11-26T09:03:50.395Z,9.10
2022-11-26T09:06:18.587Z,8.20
2022-11-26T09:09:07.757Z,9.10
2022-11-26T09:11:37.740Z,8.30
2022-11-26T09:14:06.586Z,8.40
2022-11-26T09:16:34.258Z,8.57
2022-11-26T09:19:04.381Z,8.73
2022-11-26T09:21:31.928Z,9.00
2022-11-26T09:24:00.093Z,9.20
2022-11-26T09:26:27.862Z,8.63
2022-11-26T09:28:55.468Z,8.10
2022-11-26T09:31:23.081Z,8.57
2022-11-26T09:33:51.146Z,9.87
2022-11-26T09:36:20.316Z,7.53
2022-11-26T09:38:48.123Z,8.40
2022-11-26T09:41:30.811Z,8.77
2022-11-26T09:44:09.076Z,9.50
2022-11-26T09:47:10.081Z,7.73
2022-11-26T09:49:44.717Z,13.10
2022-11-26T09:52:21.814Z,11.23
2022-11-26T09:54:54.858Z,7.73
2022-11-26T09:57:28.982Z,7.93
2022-11-26T09:59:59.660Z,6.83
2022-11-26T10:02:27.341Z,7.50
2022-11-26T10:04:55.017Z,7.10
2022-11-26T10:07:42.469Z,7.97
2022-11-26T10:10:16.394Z,7.67
2022-11-26T10:13:17.343Z,6.60
2022-11-26T10:15:40.130Z,7.00
2022-11-26T10:18:16.591Z,8.93
2022-11-26T10:21:04.409Z,6.87
2022-11-26T10:23:37.086Z,8.10
2022-11-26T10:26:11.384Z,7.53
2022-11-26T10:28:41.318Z,8.10
2022-11-26T10:31:16.165Z,7.10
2022-11-26T10:33:49.602Z,8.50
2022-11-26T10:36:22.846Z,8.27
2022-11-26T10:38:51.925Z,6.90
2022-11-26T10:41:20.548Z,8.23
2022-11-26T10:43:49.216Z,6.50
2022-11-26T10:46:32.640Z,7.03
2022-11-26T10:49:24.870Z,7.20
2022-11-26T10:51:55.131Z,7.10
2022-11-26T10:54:29.908Z,7.80
2022-11-26T10:57:03.406Z,7.67
2022-11-26T10:59:34.320Z,8.20
2022-11-26T11:02:03.389Z,7.33
2022-11-26T11:04:32.686Z,7.50
2022-11-26T11:07:00.576Z,7.70
2022-11-26T11:09:33.564Z,8.20
2022-11-26T11:12:22.336Z,9.10
2022-11-26T11:14:51.304Z,7.30
2022-11-26T11:17:34.245Z,7.83
2022-11-26T11:20:07.601Z,8.10
2022-11-26T11:22:35.396Z,7.57
2022-11-26T11:25:07.820Z,8.40
2022-11-26T11:27:39.216Z,7.27
2022-11-26T11:30:08.755Z,8.70
2022-11-26T11:32:39.172Z,6.53
2022-11-26T11:35:21.350Z,8.70
2022-11-26T11:37:50.054Z,8.17
2022-11-26T11:40:25.151Z,7.33
2022-11-26T11:42:55.655Z,7.03
2022-11-26T11:45:29.738Z,6.27
2022-11-26T11:48:01.459Z,6.63
2022-11-26T11:50:33.985Z,7.13
2022-11-26T11:53:13.387Z,6.30
2022-11-26T11:55:54.234Z,6.00
2022-11-26T11:58:52.949Z,6.83
2022-11-26T12:01:29.797Z,5.60
2022-11-26T12:04:22.014Z,6.17
2022-11-26T12:07:00.211Z,5.17
2022-11-26T12:09:34.082Z,6.57
2022-11-26T12:12:06.171Z,6.70
2022-11-26T12:14:36.728Z,5.37
2022-11-26T12:17:06.996Z,4.60
2022-11-26T12:19:39.360Z,5.60
2022-11-26T12:22:14.598Z,4.90
2022-11-26T12:24:46.273Z,5.03
2022-11-26T12:27:23.912Z,6.43
2022-11-26T12:29:54.883Z,5.33
2022-11-26T12:32:26.503Z,4.87
2022-11-26T12:34:56.247Z,6.30
2022-11-26T12:37:26.737Z,4.80
2022-11-26T12:39:58.772Z,5.50
2022-11-26T12:42:36.059Z,5.80
2022-11-26T12:45:17.422Z,6.20
2022-11-26T12:47:51.571Z,5.80
2022-11-26T12:50:22.352Z,5.93
2022-11-26T12:52:53.913Z,6.30
2022-11-26T12:55:26.121Z,7.30
2022-11-26T12:57:57.128Z,6.47
2022-11-26T13:00:58.139Z,6.40
2022-11-26T13:10:56.983Z,5.43
2022-11-26T13:14:08.594Z,4.57
2022-11-26T13:20:59.071Z,5.50
2022-11-26T13:23:59.959Z,4.67
2022-11-26T13:27:18.434Z,5.20
2022-11-26T13:30:00.040Z,5.10
2022-11-26T13:33:15.799Z,4.97
2022-11-26T13:36:40.838Z,4.30
2022-11-26T13:39:52.422Z,4.50
2022-11-26T13:42:46.895Z,4.47
2022-11-26T13:45:54.582Z,5.03
2022-11-26T13:48:25.110Z,4.67
2022-11-26T13:50:58.269Z,4.20
2022-11-26T13:53:42.465Z,4.67
2022-11-26T13:56:10.782Z,5.27
2022-11-26T13:58:45.115Z,3.40
2022-11-26T14:01:30.364Z,4.83
2022-11-26T14:03:58.702Z,4.47
2022-11-26T14:06:28.767Z,3.93
2022-11-26T14:08:57.375Z,5.60
2022-11-26T14:11:57.245Z,4.33
2022-11-26T14:14:32.238Z,4.87
2022-11-26T14:17:22.009Z,4.80
2022-11-26T14:20:03.364Z,6.17
2022-11-26T14:22:42.555Z,3.97
2022-11-26T14:56:59.807Z,5.20
2022-11-26T15:01:21.605Z,4.10
2022-11-26T15:08:26.716Z,4.60
2022-11-26T15:25:06.996Z,4.73
2022-11-26T15:40:39.965Z,4.70
2022-11-26T15:44:08.837Z,5.70
2022-11-26T15:47:19.848Z,5.00
2022-11-26T15:50:03.169Z,4.97
2022-11-26T15:52:59.320Z,4.33
2022-11-26T15:59:45.001Z,4.70
2022-11-26T16:03:55.364Z,4.23
2022-11-26T16:09:53.465Z,5.23
2022-11-26T16:13:19.378Z,4.60
2022-11-26T16:22:28.242Z,5.10
2022-11-26T16:25:48.890Z,4.20
2022-11-26T16:30:21.707Z,5.20
2022-11-26T16:31:38.469Z,4.70
2022-11-26T16:34:10.999Z,4.83
2022-11-26T16:36:42.476Z,4.43
2022-11-26T16:39:12.118Z,5.20
2022-11-26T16:41:39.906Z,5.03
2022-11-26T16:44:07.457Z,4.37
2022-11-26T16:46:36.305Z,5.33
2022-11-26T16:49:04.642Z,4.80
2022-11-26T16:51:32.329Z,5.37
2022-11-26T16:53:59.874Z,5.00
2022-11-26T16:56:32.936Z,4.20
2022-11-26T16:59:02.497Z,4.50
2022-11-26T17:01:30.227Z,4.30
2022-11-26T17:03:57.809Z,4.00
2022-11-26T17:07:24.344Z,4.20
2022-11-26T17:13:22.514Z,4.30
2022-11-26T17:16:30.927Z,4.13
2022-11-26T17:19:17.868Z,4.60
2022-11-26T17:25:12.028Z,4.57
2022-11-26T17:28:01.236Z,5.40
2022-11-26T17:33:48.351Z,4.80
2022-11-26T17:36:42.530Z,5.27
2022-11-26T17:41:06.720Z,7.00
2022-11-26T17:46:24.637Z,9.10
2022-11-26T17:50:17.685Z,7.07
2022-11-26T17:53:48.127Z,8.50
2022-11-26T17:56:15.207Z,8.57
2022-11-26T17:59:21.103Z,9.90
2022-11-26T18:02:26.635Z,6.53
2022-11-26T18:08:19.240Z,4.33
2022-11-26T18:11:51.729Z,4.40
2022-11-26T18:18:45.869Z,4.80
2022-11-26T18:21:16.259Z,4.70
2022-11-26T18:23:48.142Z,4.23
2022-11-26T18:27:50.746Z,4.17
2022-11-26T18:31:27.103Z,4.20
2022-11-26T18:34:52.729Z,4.10
2022-11-26T18:41:06.036Z,4.27
2022-11-26T18:52:57.306Z,4.43
2022-11-26T18:55:00.829Z,3.93
2022-11-26T19:02:00.393Z,6.00
2022-11-26T19:04:29.558Z,4.47
2022-11-26T19:06:57.215Z,4.80
2022-11-26T19:09:24.816Z,5.43
2022-11-26T19:23:28.611Z,7.70
2022-11-26T19:30:53.458Z,10.90
2022-11-26T19:34:07.705Z,8.43
2022-11-26T19:37:31.143Z,8.43
2022-11-26T19:40:42.303Z,6.60
2022-11-26T19:51:18.382Z,7.40
2022-11-26T19:55:02.124Z,7.70
2022-11-26T20:03:05.505Z,8.53
2022-11-26T23:08:54.262Z,8.43
2022-11-26T23:34:13.357Z,8.30
2022-11-26T23:44:15.088Z,7.97
2022-11-26T23:50:49.455Z,6.77
2022-11-26T23:54:09.921Z,7.20
